createdAt,value
2018-12-14T00:02:01.749Z,100232.95
2018-12-14T00:04:30.900Z,100222.67
2018-12-14T00:07:00.050Z,100227.56
2018-12-14T00:09:29.206Z,100224.77
2018-12-14T00:11:58.372Z,100225.33
2018-12-14T00:14:27.519Z,100223.72
2018-12-14T00:16:56.688Z,100212.70
2018-12-14T00:19:25.895Z,100209.89
2018-12-14T00:21:55.048Z,100211.58
2018-12-14T00:24:24.201Z,100214.22
2018-12-14T00:26:53.362Z,100207.05
2018-12-14T00:29:22.469Z,100215.17
2018-12-14T00:31:51.578Z,100218.84
2018-12-14T00:34:20.650Z,100213.92
2018-12-14T00:36:49.857Z,100207.04
2018-12-14T00:39:18.975Z,100206.22
2018-12-14T00:41:51.889Z,100207.80
2018-12-14T00:44:19.253Z,100216.83
2018-12-14T00:46:48.372Z,100219.11
2018-12-14T00:49:17.496Z,100208.56
2018-12-14T00:51:46.640Z,100213.84
2018-12-14T00:54:15.756Z,100211.20
2018-12-14T00:56:44.886Z,100214.02
2018-12-14T00:59:13.996Z,100214.57
2018-12-14T01:01:43.157Z,100222.12
2018-12-14T01:04:12.277Z,100216.56
2018-12-14T01:06:41.445Z,100222.67
2018-12-14T01:09:10.554Z,100158.55
2018-12-14T01:11:39.699Z,100226.45
2018-12-14T01:14:08.884Z,100223.63
2018-12-14T01:16:38.023Z,100220.61
2018-12-14T01:19:07.146Z,100218.06
2018-12-14T01:21:36.556Z,100213.28
2018-12-14T01:24:05.684Z,100206.11
2018-12-14T01:26:34.819Z,100203.08
2018-12-14T01:29:03.916Z,100203.47
2018-12-14T01:31:33.024Z,100211.19
2018-12-14T01:34:32.705Z,100203.48
2018-12-14T01:37:01.812Z,100200.83
2018-12-14T01:39:31.037Z,100209.56
2018-12-14T01:42:04.773Z,100209.84
2018-12-14T01:44:31.285Z,100215.66
2018-12-14T01:47:00.409Z,100215.28
2018-12-14T01:49:29.517Z,100214.31
2018-12-14T01:51:58.643Z,100210.73
2018-12-14T01:54:27.765Z,100211.27
2018-12-14T01:56:56.913Z,100206.18
2018-12-14T01:59:26.018Z,100207.94
2018-12-14T02:01:55.139Z,100209.48
2018-12-14T02:04:24.262Z,100204.11
2018-12-14T02:06:53.380Z,100217.78
2018-12-14T02:09:22.537Z,100212.22
2018-12-14T02:11:51.672Z,100214.77
2018-12-14T02:14:20.815Z,100219.55
2018-12-14T02:16:49.961Z,100207.09
2018-12-14T02:19:19.089Z,100202.28
2018-12-14T02:21:48.225Z,100206.53
2018-12-14T02:24:17.334Z,100193.33
2018-12-14T02:26:46.458Z,100196.53
2018-12-14T02:29:15.586Z,100204.20
2018-12-14T02:31:44.700Z,100209.08
2018-12-14T02:34:13.813Z,100206.59
2018-12-14T02:36:42.977Z,100199.61
2018-12-14T02:39:12.173Z,100207.59
2018-12-14T02:41:41.280Z,100215.61
2018-12-14T02:44:10.400Z,100217.36
2018-12-14T02:46:39.509Z,100216.37
2018-12-14T02:49:08.646Z,100198.44
2018-12-14T02:51:38.013Z,100190.23
2018-12-14T02:54:07.140Z,100190.42
2018-12-14T02:56:36.268Z,100194.77
2018-12-14T02:59:05.391Z,100189.76
2018-12-14T03:01:34.525Z,100189.91
2018-12-14T03:04:03.632Z,100182.16
2018-12-14T03:06:39.116Z,100190.23
2018-12-14T03:09:08.293Z,100195.22
2018-12-14T03:11:37.410Z,100192.48
2018-12-14T03:14:06.517Z,100193.58
2018-12-14T03:16:35.661Z,100201.41
2018-12-14T03:19:04.794Z,100199.89
2018-12-14T03:21:33.932Z,100202.43
2018-12-14T03:24:03.051Z,100190.26
2018-12-14T03:26:32.194Z,100193.95
2018-12-14T03:29:01.782Z,100201.83
2018-12-14T03:31:30.918Z,100195.42
2018-12-14T03:34:00.044Z,100195.42
2018-12-14T03:36:29.170Z,100198.34
2018-12-14T03:38:58.285Z,100189.61
2018-12-14T03:41:27.772Z,100185.25
2018-12-14T03:43:56.900Z,100189.96
2018-12-14T03:46:26.030Z,100184.92
2018-12-14T03:48:55.161Z,100185.86
2018-12-14T03:51:29.080Z,100193.18
2018-12-14T03:53:58.267Z,100195.64
2018-12-14T03:56:27.394Z,100203.05
2018-12-14T03:58:56.485Z,100201.03
2018-12-14T04:01:25.614Z,100207.83
2018-12-14T04:03:54.753Z,100212.22
2018-12-14T04:06:23.874Z,100211.98
2018-12-14T04:08:52.975Z,100211.42
2018-12-14T04:11:22.094Z,100214.77
2018-12-14T04:13:51.259Z,100220.00
2018-12-14T04:16:20.389Z,100228.72
2018-12-14T04:18:49.526Z,100231.20
2018-12-14T04:21:18.639Z,100232.97
2018-12-14T04:23:47.771Z,100243.05
2018-12-14T04:26:16.876Z,100244.68
2018-12-14T04:28:46.018Z,100249.04
2018-12-14T04:31:15.186Z,100247.61
2018-12-14T04:33:44.465Z,100234.34
2018-12-14T04:36:13.564Z,100235.84
2018-12-14T04:38:42.675Z,100232.66
2018-12-14T04:41:11.889Z,100229.27
2018-12-14T04:43:40.988Z,100236.52
2018-12-14T04:46:10.128Z,100231.15
2018-12-14T04:48:39.244Z,100225.97
2018-12-14T04:51:09.242Z,100219.77
2018-12-14T04:53:38.391Z,100218.91
2018-12-14T04:56:07.493Z,100213.44
2018-12-14T04:58:36.628Z,100206.28
2018-12-14T05:01:05.782Z,100203.46
2018-12-14T05:03:35.417Z,100200.98
2018-12-14T05:06:04.529Z,100204.58
2018-12-14T05:08:33.678Z,100210.22
2018-12-14T05:11:02.789Z,100206.63
2018-12-14T05:13:31.898Z,100200.69
2018-12-14T05:16:01.010Z,100209.08
2018-12-14T05:18:30.149Z,100210.69
2018-12-14T05:20:59.264Z,100210.59
2018-12-14T05:23:28.373Z,100215.47
2018-12-14T05:25:57.488Z,100216.61
2018-12-14T05:28:26.624Z,100210.23
2018-12-14T05:30:55.765Z,100208.98
2018-12-14T05:33:24.892Z,100212.72
2018-12-14T05:35:54.024Z,100217.81
2018-12-14T05:38:23.161Z,100218.16
2018-12-14T05:40:52.273Z,100215.85
2018-12-14T05:43:21.400Z,100215.84
2018-12-14T05:45:50.541Z,100227.50
2018-12-14T05:48:19.692Z,100222.08
2018-12-14T05:50:48.801Z,100227.59
2018-12-14T05:53:17.929Z,100228.67
2018-12-14T05:55:47.034Z,100229.00
2018-12-14T05:58:16.341Z,100226.67
2018-12-14T06:00:45.590Z,100235.59
2018-12-14T06:03:14.907Z,100232.38
2018-12-14T06:05:44.065Z,100232.97
2018-12-14T06:08:13.201Z,100237.83
2018-12-14T06:10:42.322Z,100242.48
2018-12-14T06:13:11.649Z,100242.22
2018-12-14T06:15:41.024Z,100253.66
2018-12-14T06:18:10.141Z,100250.27
2018-12-14T06:20:39.230Z,100258.51
2018-12-14T06:23:08.337Z,100267.02
2018-12-14T06:25:37.480Z,100272.72
2018-12-14T06:28:06.701Z,100269.80
2018-12-14T06:30:35.777Z,100273.09
2018-12-14T06:33:04.881Z,100276.23
2018-12-14T06:35:33.980Z,100271.47
2018-12-14T06:38:03.104Z,100280.40
2018-12-14T06:40:32.196Z,100278.41
2018-12-14T06:43:01.314Z,100281.22
2018-12-14T06:45:30.444Z,100288.03
2018-12-14T06:48:05.983Z,100283.38
2018-12-14T06:50:35.156Z,100288.31
2018-12-14T06:53:04.540Z,100281.65
2018-12-14T06:55:33.639Z,100281.83
2018-12-14T06:58:02.718Z,100281.03
2018-12-14T07:00:31.820Z,100281.42
2018-12-14T07:03:00.953Z,100283.84
2018-12-14T07:05:30.029Z,100277.85
2018-12-14T07:07:59.126Z,100284.37
2018-12-14T07:10:28.223Z,100282.36
2018-12-14T07:12:57.349Z,100276.97
2018-12-14T07:15:26.442Z,100282.53
2018-12-14T07:17:55.555Z,100281.23
2018-12-14T07:20:24.633Z,100277.14
2018-12-14T07:22:53.720Z,100275.58
2018-12-14T07:25:22.812Z,100287.53
2018-12-14T07:27:51.937Z,100285.71
2018-12-14T07:30:21.021Z,100285.37
2018-12-14T07:32:50.136Z,100288.86
2018-12-14T07:35:19.252Z,100290.41
2018-12-14T07:37:48.338Z,100289.41
2018-12-14T07:40:17.456Z,100288.80
2018-12-14T07:42:46.586Z,100287.89
2018-12-14T07:45:15.758Z,100288.58
2018-12-14T07:47:44.856Z,100288.88
2018-12-14T07:50:13.957Z,100292.70
2018-12-14T07:52:43.069Z,100298.41
2018-12-14T07:55:12.168Z,100297.34
2018-12-14T07:57:41.273Z,100293.27
2018-12-14T08:00:10.508Z,100292.86
2018-12-14T08:02:39.619Z,100296.06
2018-12-14T08:05:08.911Z,100291.31
2018-12-14T08:07:38.024Z,100288.31
2018-12-14T08:10:07.321Z,100286.64
2018-12-14T08:12:36.430Z,100287.30
2018-12-14T08:15:11.112Z,100288.80
2018-12-14T08:17:36.840Z,100285.70
2018-12-14T08:20:06.043Z,100288.67
2018-12-14T08:22:35.218Z,100288.01
2018-12-14T08:25:04.538Z,100294.27
2018-12-14T08:27:33.715Z,100292.36
2018-12-14T08:30:02.835Z,100293.41
2018-12-14T08:32:31.953Z,100288.70
2018-12-14T08:35:01.093Z,100274.03
2018-12-14T08:37:30.296Z,100275.09
2018-12-14T08:39:59.423Z,100281.55
2018-12-14T08:42:28.530Z,100281.06
2018-12-14T08:44:57.705Z,100281.25
2018-12-14T08:47:26.827Z,100280.63
2018-12-14T08:49:55.971Z,100270.66
2018-12-14T08:52:25.073Z,100276.27
2018-12-14T08:54:54.181Z,100267.28
2018-12-14T08:57:23.363Z,100268.80
2018-12-14T08:59:52.461Z,100264.32
2018-12-14T09:02:21.580Z,100267.78
2018-12-14T09:04:50.710Z,100269.33
2018-12-14T09:07:24.506Z,100267.09
2018-12-14T09:09:51.670Z,100266.19
2018-12-14T09:12:20.809Z,100266.16
2018-12-14T09:14:49.949Z,100256.47
2018-12-14T09:17:19.047Z,100253.44
2018-12-14T09:19:49.030Z,100254.62
2018-12-14T09:22:18.105Z,100246.95
2018-12-14T09:24:47.209Z,100248.78
2018-12-14T09:27:16.313Z,100239.56
2018-12-14T09:29:45.446Z,100241.18
2018-12-14T09:32:14.561Z,100246.07
2018-12-14T09:34:43.847Z,100240.37
2018-12-14T09:37:12.954Z,100233.23
2018-12-14T09:39:42.063Z,100239.87
2018-12-14T09:42:11.177Z,100231.67
2018-12-14T09:44:40.312Z,100229.28
2018-12-14T09:47:09.435Z,100228.41
2018-12-14T09:49:38.548Z,100233.63
2018-12-14T09:52:07.652Z,100243.39
2018-12-14T09:54:36.774Z,100241.14
2018-12-14T09:57:05.913Z,100238.14
2018-12-14T09:59:35.028Z,100243.95
2018-12-14T10:02:04.147Z,100238.69
2018-12-14T10:04:34.267Z,100229.14
2018-12-14T10:07:03.406Z,100231.13
2018-12-14T10:09:32.533Z,100223.26
2018-12-14T10:12:01.662Z,100222.56
2018-12-14T10:14:30.790Z,100219.11
2018-12-14T10:16:59.903Z,100216.16
2018-12-14T10:19:28.981Z,100209.70
2018-12-14T10:21:58.101Z,100220.43
2018-12-14T10:24:27.297Z,100220.80
2018-12-14T10:26:56.502Z,100217.22
2018-12-14T10:29:25.576Z,100205.47
2018-12-14T10:31:54.677Z,100206.39
2018-12-14T10:34:23.797Z,100204.38
2018-12-14T10:36:52.917Z,100205.72
2018-12-14T10:39:22.069Z,100212.12
2018-12-14T10:41:51.204Z,100209.59
2018-12-14T10:44:20.323Z,100203.93
2018-12-14T10:46:49.452Z,100199.22
2018-12-14T10:49:18.565Z,100195.12
2018-12-14T10:51:47.838Z,100194.48
2018-12-14T10:54:17.222Z,100192.66
2018-12-14T10:56:46.352Z,100195.63
2018-12-14T10:59:15.476Z,100200.34
2018-12-14T11:01:49.705Z,100191.47
2018-12-14T11:04:18.832Z,100187.05
2018-12-14T11:06:47.939Z,100182.22
2018-12-14T11:09:17.052Z,100183.76
2018-12-14T11:11:46.256Z,100181.17
2018-12-14T11:14:15.358Z,100191.74
2018-12-14T11:16:44.474Z,100186.57
2018-12-14T11:19:13.625Z,100176.60
2018-12-14T11:21:42.773Z,100169.25
2018-12-14T11:24:11.885Z,100175.52
2018-12-14T11:26:41.010Z,100170.05
2018-12-14T11:29:10.124Z,100169.02
2018-12-14T11:31:39.249Z,100172.53
2018-12-14T11:34:08.337Z,100171.70
2018-12-14T11:36:38.179Z,100171.80
2018-12-14T11:39:07.741Z,100163.94
2018-12-14T11:41:37.062Z,100165.05
2018-12-14T11:44:06.128Z,100166.94
2018-12-14T11:46:35.273Z,100173.83
2018-12-14T11:49:04.385Z,100164.54
2018-12-14T11:51:33.488Z,100160.38
2018-12-14T11:54:02.577Z,100169.41
2018-12-14T11:56:31.732Z,100168.27
2018-12-14T11:59:00.857Z,100170.45
2018-12-14T12:01:30.057Z,100167.98
2018-12-14T12:03:59.116Z,100160.86
2018-12-14T12:06:28.239Z,100159.17
2018-12-14T12:08:57.349Z,100148.16
2018-12-14T12:11:26.484Z,100150.38
2018-12-14T12:13:55.576Z,100146.37
2018-12-14T12:16:24.688Z,100138.36
2018-12-14T12:18:53.862Z,100143.48
2018-12-14T12:21:22.957Z,100137.64
2018-12-14T12:23:55.232Z,100139.62
2018-12-14T12:26:23.190Z,100145.72
2018-12-14T12:28:52.307Z,100142.45
2018-12-14T12:31:21.428Z,100137.97
2018-12-14T12:33:50.573Z,100142.27
2018-12-14T12:36:19.725Z,100145.84
2018-12-14T12:38:48.873Z,100144.00
2018-12-14T12:41:18.004Z,100143.90
2018-12-14T12:43:47.133Z,100149.95
2018-12-14T12:46:16.242Z,100153.13
2018-12-14T12:48:45.608Z,100157.84
2018-12-14T12:51:14.999Z,100155.22
2018-12-14T12:53:44.089Z,100155.37
2018-12-14T12:56:13.482Z,100149.07
2018-12-14T12:58:42.622Z,100147.83
2018-12-14T13:01:11.708Z,100144.64
2018-12-14T13:03:40.805Z,100148.91
2018-12-14T13:06:09.918Z,100143.04
2018-12-14T13:08:39.588Z,100147.41
2018-12-14T13:11:08.705Z,100133.62
2018-12-14T13:13:37.801Z,100131.29
2018-12-14T13:16:06.967Z,100131.27
2018-12-14T13:18:36.112Z,100135.12
2018-12-14T13:21:05.202Z,100142.30
2018-12-14T13:23:34.349Z,100138.67
2018-12-14T13:26:03.494Z,100137.42
2018-12-14T13:28:32.857Z,100135.09
2018-12-14T13:31:02.034Z,100135.73
2018-12-14T13:33:31.278Z,100137.39
2018-12-14T13:36:00.448Z,100140.94
2018-12-14T13:38:29.529Z,100142.73
2018-12-14T13:40:58.641Z,100138.96
2018-12-14T13:43:27.817Z,100142.34
2018-12-14T13:45:56.929Z,100136.27
2018-12-14T13:48:26.043Z,100142.05
2018-12-14T13:50:55.215Z,100148.41
2018-12-14T13:53:24.333Z,100144.75
2018-12-14T13:55:53.451Z,100150.16
2018-12-14T13:58:22.539Z,100156.46
2018-12-14T14:00:51.657Z,100152.00
2018-12-14T14:03:20.765Z,100159.72
2018-12-14T14:05:49.873Z,100164.86
2018-12-14T14:08:19.084Z,100160.00
2018-12-14T14:10:48.218Z,100153.58
2018-12-14T14:13:17.351Z,100144.75
2018-12-14T14:15:50.748Z,100140.53
2018-12-14T14:18:17.631Z,100145.41
2018-12-14T14:20:46.759Z,100147.66
2018-12-14T14:23:15.888Z,100145.69
2018-12-14T14:25:45.309Z,100148.64
2018-12-14T14:28:14.397Z,100147.19
2018-12-14T14:30:43.477Z,100154.44
2018-12-14T14:33:12.572Z,100153.31
2018-12-14T14:35:41.680Z,100155.63
2018-12-14T14:38:10.778Z,100158.92
2018-12-14T14:40:39.917Z,100161.25
2018-12-14T14:43:09.021Z,100164.86
2018-12-14T14:45:38.158Z,100160.36
2018-12-14T14:48:07.345Z,100159.34
2018-12-14T14:50:36.458Z,100157.34
2018-12-14T14:53:05.579Z,100161.12
2018-12-14T14:55:34.680Z,100165.13
2018-12-14T14:58:03.798Z,100162.46
2018-12-14T15:00:33.466Z,100166.47
2018-12-14T15:03:02.916Z,100161.48
2018-12-14T15:05:32.047Z,100161.76
2018-12-14T15:08:02.202Z,100166.34
2018-12-14T15:10:31.321Z,100172.17
2018-12-14T15:13:00.448Z,100177.52
2018-12-14T15:15:29.566Z,100182.15
2018-12-14T15:17:58.695Z,100176.05
2018-12-14T15:20:27.799Z,100175.84
2018-12-14T15:22:56.926Z,100178.02
2018-12-14T15:25:26.020Z,100177.27
2018-12-14T15:27:55.118Z,100180.77
2018-12-14T15:30:24.220Z,100180.96
2018-12-14T15:32:53.332Z,100177.94
2018-12-14T15:35:22.516Z,100185.27
2018-12-14T15:37:51.706Z,100184.61
2018-12-14T15:40:20.833Z,100183.63
2018-12-14T15:42:49.977Z,100184.20
2018-12-14T15:45:19.081Z,100185.31
2018-12-14T15:47:48.203Z,100180.39
2018-12-14T15:50:17.325Z,100181.37
2018-12-14T15:52:46.451Z,100180.66
2018-12-14T15:55:15.538Z,100180.66
2018-12-14T15:57:44.653Z,100177.91
2018-12-14T16:00:13.753Z,100179.05
2018-12-14T16:02:42.846Z,100172.16
2018-12-14T16:05:11.965Z,100179.75
2018-12-14T16:07:41.079Z,100175.58
2018-12-14T16:10:10.204Z,100184.50
2018-12-14T16:12:39.333Z,100184.77
2018-12-14T16:15:09.026Z,100184.89
2018-12-14T16:17:38.175Z,100187.72
2018-12-14T16:20:09.187Z,100184.34
2018-12-14T16:22:38.306Z,100178.03
2018-12-14T16:25:08.336Z,100180.34
2018-12-14T16:27:37.988Z,100194.03
2018-12-14T16:30:09.513Z,100188.34
2018-12-14T16:32:38.628Z,100187.98
2018-12-14T16:35:07.746Z,100184.39
2018-12-14T16:37:36.915Z,100184.88
2018-12-14T16:40:06.576Z,100180.39
2018-12-14T16:42:35.804Z,100187.54
2018-12-14T16:45:04.986Z,100182.56
2018-12-14T16:47:34.126Z,100180.33
2018-12-14T16:50:03.215Z,100189.17
2018-12-14T16:52:32.354Z,100182.05
2018-12-14T16:55:01.481Z,100184.59
2018-12-14T16:57:30.584Z,100171.69
2018-12-14T16:59:59.769Z,100181.08
2018-12-14T17:02:28.881Z,100188.09
2018-12-14T17:04:58.021Z,100195.45
2018-12-14T17:07:27.165Z,100182.97
2018-12-14T17:09:56.289Z,100173.74
2018-12-14T17:12:25.509Z,100183.69
2018-12-14T17:14:54.606Z,100183.20
2018-12-14T17:17:23.876Z,100185.38
2018-12-14T17:19:53.021Z,100173.74
2018-12-14T17:22:22.148Z,100175.70
2018-12-14T17:24:51.254Z,100165.33
2018-12-14T17:27:20.652Z,100177.22
2018-12-14T17:29:49.785Z,100179.17
2018-12-14T17:32:18.928Z,100172.09
2018-12-14T17:34:48.053Z,100177.13
2018-12-14T17:37:17.180Z,100180.14
2018-12-14T17:39:46.306Z,100175.66
2018-12-14T17:42:15.439Z,100169.72
2018-12-14T17:44:44.761Z,100167.28
2018-12-14T17:47:13.913Z,100160.75
2018-12-14T17:49:43.020Z,100167.89
2018-12-14T17:52:12.164Z,100160.52
2018-12-14T17:54:41.301Z,100168.52
2018-12-14T17:57:10.429Z,100161.23
2018-12-14T17:59:39.544Z,100159.16
2018-12-14T18:02:08.724Z,100156.62
2018-12-14T18:04:37.861Z,100159.83
2018-12-14T18:07:07.015Z,100157.88
2018-12-14T18:09:36.174Z,100160.91
2018-12-14T18:12:05.347Z,100161.12
2018-12-14T18:14:34.494Z,100166.16
2018-12-14T18:17:03.618Z,100172.70
2018-12-14T18:19:32.791Z,100177.28
2018-12-14T18:22:01.931Z,100172.53
2018-12-14T18:24:31.091Z,100168.37
2018-12-14T18:27:00.225Z,100166.41
2018-12-14T18:29:29.387Z,100166.64
2018-12-14T18:32:12.831Z,100163.13
2018-12-14T18:34:42.014Z,100164.02
2018-12-14T18:37:11.259Z,100174.48
2018-12-14T18:39:40.429Z,100164.02
2018-12-14T18:42:09.596Z,100168.16
2018-12-14T18:44:38.884Z,100169.35
2018-12-14T18:47:08.155Z,100166.46
2018-12-14T18:49:37.335Z,100177.02
2018-12-14T18:52:06.484Z,100187.33
2018-12-14T18:54:35.630Z,100189.99
2018-12-14T18:57:04.777Z,100185.02
2018-12-14T18:59:33.938Z,100182.84
2018-12-14T19:02:03.049Z,100185.51
2018-12-14T19:04:32.169Z,100180.47
2018-12-14T19:07:01.569Z,100184.80
2018-12-14T19:09:30.713Z,100183.81
2018-12-14T19:11:59.822Z,100189.15
2018-12-14T19:14:28.941Z,100191.33
2018-12-14T19:16:58.103Z,100188.59
2018-12-14T19:19:27.251Z,100186.91
2018-12-14T19:21:56.374Z,100198.48
2018-12-14T19:24:25.505Z,100195.33
2018-12-14T19:26:54.627Z,100197.14
2018-12-14T19:29:23.737Z,100188.59
2018-12-14T19:31:52.867Z,100186.67
2018-12-14T19:34:21.982Z,100186.55
2018-12-14T19:36:51.107Z,100188.63
2018-12-14T19:39:20.409Z,100188.27
2018-12-14T19:41:49.561Z,100186.88
2018-12-14T19:44:18.698Z,100176.60
2018-12-14T19:46:47.833Z,100174.97
2018-12-14T19:49:16.970Z,100165.70
2018-12-14T19:51:46.082Z,100174.57
2018-12-14T19:54:15.260Z,100181.59
2018-12-14T19:56:44.573Z,100181.72
2018-12-14T19:59:13.685Z,100177.65
2018-12-14T20:01:42.880Z,100178.98
2018-12-14T20:04:11.983Z,100178.50
2018-12-14T20:06:41.134Z,100176.32
2018-12-14T20:09:10.240Z,100173.86
2018-12-14T20:11:39.350Z,100170.50
2018-12-14T20:14:09.007Z,100166.22
2018-12-14T20:16:38.339Z,100166.84
2018-12-14T20:19:07.451Z,100161.19
2018-12-14T20:21:36.566Z,100155.58
2018-12-14T20:24:05.718Z,100156.81
2018-12-14T20:26:34.837Z,100159.47
2018-12-14T20:29:03.949Z,100157.27
2018-12-14T20:31:33.049Z,100164.84
2018-12-14T20:34:02.190Z,100156.47
2018-12-14T20:36:31.295Z,100153.81
2018-12-14T20:39:00.465Z,100161.19
2018-12-14T20:41:29.609Z,100157.19
2018-12-14T20:43:58.717Z,100158.52
2018-12-14T20:46:27.849Z,100156.19
2018-12-14T20:48:56.959Z,100149.69
2018-12-14T20:51:26.046Z,100157.31
2018-12-14T20:53:56.268Z,100159.86
2018-12-14T20:56:25.357Z,100166.94
2018-12-14T20:58:54.473Z,100159.30
2018-12-14T21:01:23.572Z,100161.55
2018-12-14T21:03:52.708Z,100166.01
2018-12-14T21:06:21.820Z,100154.44
2018-12-14T21:08:50.941Z,100153.59
2018-12-14T21:11:20.058Z,100147.72
2018-12-14T21:13:49.199Z,100147.36
2018-12-14T21:16:18.341Z,100152.45
2018-12-14T21:18:47.466Z,100151.48
2018-12-14T21:21:16.573Z,100153.89
2018-12-14T21:23:45.691Z,100149.80
2018-12-14T21:26:14.786Z,100145.44
2018-12-14T21:28:43.890Z,100137.80
2018-12-14T21:31:12.985Z,100138.16
2018-12-14T21:33:42.086Z,100137.31
2018-12-14T21:36:11.201Z,100135.76
2018-12-14T21:38:40.320Z,100129.16
2018-12-14T21:41:09.426Z,100123.70
2018-12-14T21:43:38.537Z,100114.45
2018-12-14T21:46:07.661Z,100108.14
2018-12-14T21:48:36.765Z,100104.70
2018-12-14T21:51:05.852Z,100117.56
2018-12-14T21:53:34.979Z,100120.69
2018-12-14T21:56:04.087Z,100114.77
2018-12-14T21:58:33.194Z,100107.91
2018-12-14T22:01:02.310Z,100108.24
2018-12-14T22:03:31.407Z,100107.56
2018-12-14T22:06:00.549Z,100112.40
2018-12-14T22:08:29.642Z,100111.20
2018-12-14T22:10:58.754Z,100114.96
2018-12-14T22:13:27.876Z,100106.39
2018-12-14T22:15:57.014Z,100099.17
2018-12-14T22:18:26.125Z,100093.27
2018-12-14T22:20:55.241Z,100093.70
2018-12-14T22:23:24.366Z,100098.52
2018-12-14T22:25:53.471Z,100091.87
2018-12-14T22:28:22.566Z,100090.24
2018-12-14T22:30:51.717Z,100081.89
2018-12-14T22:33:20.824Z,100082.55
2018-12-14T22:35:49.980Z,100070.72
2018-12-14T22:38:19.481Z,100073.39
2018-12-14T22:40:48.593Z,100076.41
2018-12-14T22:43:17.694Z,100077.73
2018-12-14T22:45:46.802Z,100077.05
2018-12-14T22:48:15.890Z,100066.66
2018-12-14T22:50:45.013Z,100070.13
2018-12-14T22:53:14.127Z,100063.54
2018-12-14T22:55:43.257Z,100066.30
2018-12-14T22:58:12.341Z,100051.80
2018-12-14T23:00:46.567Z,100062.70
2018-12-14T23:03:15.670Z,100055.72
2018-12-14T23:05:44.813Z,100062.86
2018-12-14T23:08:13.939Z,100054.16
2018-12-14T23:10:43.041Z,100054.05
2018-12-14T23:13:12.129Z,100051.03
2018-12-14T23:15:41.280Z,100034.64
2018-12-14T23:18:10.370Z,100042.70
2018-12-14T23:20:39.489Z,100036.95
2018-12-14T23:23:08.593Z,100043.39
2018-12-14T23:25:37.776Z,100037.03
2018-12-14T23:28:06.854Z,100034.27
2018-12-14T23:30:35.971Z,100034.80
2018-12-14T23:33:05.067Z,100045.33
2018-12-14T23:35:34.186Z,100046.45
2018-12-14T23:38:03.311Z,100042.17
2018-12-14T23:40:32.463Z,100040.07
2018-12-14T23:43:01.554Z,100034.75
2018-12-14T23:45:30.659Z,100022.66
2018-12-14T23:47:59.748Z,100015.83
2018-12-14T23:50:28.865Z,100029.95
2018-12-14T23:52:57.988Z,100023.98
2018-12-14T23:55:27.107Z,100027.64
2018-12-14T23:57:56.229Z,100027.36
